Time;durP1;ratioP1;P1;durP2;ratioP2;P2;SDS_P1;SDS_P2;PMS_P1;PMS_P2;Temp;Humidity;BMP_temperature;BMP_pressure;BME280_temperature;BME280_humidity;BME280_pressure;Samples;Min_cycle;Max_cycle;Signal;HPM_P1;HPM_P2
2021/04/23 00:00:55;;;;;;;10.43;5.07;;;4.00;99.90;;;;;;4321496;33;20461;-69
2021/04/23 00:03:33;;;;;;;12.83;5.20;;;4.00;99.90;;;;;;4321648;33;20141;-69
2021/04/23 00:06:21;;;;;;;11.33;4.90;;;4.00;99.90;;;;;;4321533;33;20220;-68
2021/04/23 00:08:57;;;;;;;11.33;5.07;;;4.00;99.90;;;;;;4322018;33;20216;-70
2021/04/23 00:11:34;;;;;;;13.20;5.00;;;4.00;99.90;;;;;;4321704;33;20202;-70
2021/04/23 00:14:01;;;;;;;13.50;5.47;;;4.00;99.90;;;;;;4320204;33;20195;-68
2021/04/23 00:16:28;;;;;;;8.50;4.50;;;3.90;99.90;;;;;;4321499;33;20152;-68
2021/04/23 00:18:54;;;;;;;14.50;5.20;;;3.90;99.90;;;;;;4320029;33;20424;-69
2021/04/23 00:21:22;;;;;;;14.60;5.33;;;3.90;99.90;;;;;;4320153;33;20455;-69
2021/04/23 00:23:49;;;;;;;12.97;5.43;;;3.90;99.90;;;;;;4320865;33;20224;-68
2021/04/23 00:26:16;;;;;;;12.00;5.20;;;3.90;99.90;;;;;;4321422;33;20353;-68
2021/04/23 00:28:43;;;;;;;13.10;5.37;;;3.90;99.90;;;;;;4320338;33;20157;-69
2021/04/23 00:31:10;;;;;;;11.13;5.10;;;3.90;99.90;;;;;;4321331;33;20185;-71
2021/04/23 00:33:37;;;;;;;11.03;5.13;;;3.90;99.90;;;;;;4321094;33;20483;-69
2021/04/23 00:36:06;;;;;;;11.37;5.10;;;3.90;99.90;;;;;;4321368;33;20242;-69
2021/04/23 00:38:33;;;;;;;11.83;5.47;;;3.90;99.90;;;;;;4319532;33;20142;-68
2021/04/23 00:41:15;;;;;;;12.67;5.17;;;3.90;99.90;;;;;;4318670;33;20150;-69
2021/04/23 00:43:56;;;;;;;13.33;5.43;;;3.90;99.90;;;;;;4320036;33;20243;-69
2021/04/23 00:46:26;;;;;;;11.20;4.93;;;3.90;99.90;;;;;;4321448;33;20201;-70
2021/04/23 00:48:53;;;;;;;14.27;5.10;;;3.80;99.90;;;;;;4321099;33;20229;-69
2021/04/23 00:51:36;;;;;;;12.23;5.60;;;3.80;99.90;;;;;;4321187;33;20187;-70
2021/04/23 00:54:05;;;;;;;10.97;5.73;;;3.80;99.90;;;;;;4320658;33;20368;-70
2021/04/23 00:56:40;;;;;;;12.43;5.57;;;3.80;99.90;;;;;;4319655;33;20459;-69
2021/04/23 00:59:08;;;;;;;11.53;5.00;;;3.90;99.90;;;;;;4321066;33;20145;-69
2021/04/23 01:01:47;;;;;;;13.33;5.20;;;3.80;99.90;;;;;;4319887;33;20213;-68
2021/04/23 01:04:15;;;;;;;12.60;5.67;;;3.90;99.90;;;;;;4321103;33;20212;-68
2021/04/23 01:06:42;;;;;;;11.63;5.47;;;3.80;99.90;;;;;;4321033;33;20471;-68
2021/04/23 01:09:20;;;;;;;12.20;4.90;;;3.80;99.90;;;;;;4321119;33;20424;-68
2021/04/23 01:11:48;;;;;;;11.03;5.40;;;3.80;99.90;;;;;;4320553;33;20202;-67
2021/04/23 01:14:16;;;;;;;12.43;5.47;;;3.70;99.90;;;;;;4326920;33;20432;-67
2021/04/23 01:16:42;;;;;;;12.00;5.70;;;3.70;99.90;;;;;;4332427;33;20164;-72
2021/04/23 01:19:14;;;;;;;14.33;5.10;;;3.70;99.90;;;;;;4332158;33;20307;-73
2021/04/23 01:21:41;;;;;;;12.83;5.47;;;3.80;99.90;;;;;;4333828;33;20192;-73
2021/04/23 01:24:10;;;;;;;13.77;5.47;;;3.80;99.90;;;;;;4332271;33;20223;-73
2021/04/23 01:26:43;;;;;;;12.50;5.33;;;3.80;99.90;;;;;;4332322;33;20584;-73
2021/04/23 01:29:12;;;;;;;12.30;5.77;;;3.80;99.90;;;;;;4334174;33;20161;-73
2021/04/23 01:31:42;;;;;;;9.83;5.13;;;3.80;99.90;;;;;;4333175;33;20207;-72
2021/04/23 01:34:12;;;;;;;16.37;5.60;;;3.80;99.90;;;;;;4334822;33;20135;-73
2021/04/23 01:36:40;;;;;;;12.63;5.57;;;3.80;99.90;;;;;;4335614;33;20133;-73
2021/04/23 01:39:14;;;;;;;10.77;5.40;;;3.80;99.90;;;;;;4334209;33;20161;-73
2021/04/23 01:41:41;;;;;;;14.33;5.40;;;3.80;99.90;;;;;;4335760;33;20170;-73
2021/04/23 01:44:10;;;;;;;12.03;5.00;;;3.80;99.90;;;;;;4334402;33;20144;-73
2021/04/23 01:46:37;;;;;;;12.57;4.90;;;3.80;99.90;;;;;;4336211;33;20143;-74
2021/04/23 01:49:14;;;;;;;12.10;5.13;;;3.80;99.90;;;;;;4337855;33;20147;-74
2021/04/23 01:52:23;;;;;;;8.90;4.50;;;3.80;99.90;;;;;;4337090;33;20213;-74
2021/04/23 01:54:50;;;;;;;11.47;5.30;;;3.90;99.90;;;;;;4329289;33;20211;-73
2021/04/23 01:57:18;;;;;;;8.70;4.60;;;3.90;99.90;;;;;;4331353;33;20173;-73
2021/04/23 01:59:47;;;;;;;12.30;5.10;;;3.90;99.90;;;;;;4336540;33;20215;-74
2021/04/23 02:02:15;;;;;;;11.67;4.80;;;3.90;99.90;;;;;;4336672;33;20149;-74
2021/04/23 02:04:45;;;;;;;13.47;5.37;;;3.80;99.90;;;;;;4336872;33;20142;-74
2021/04/23 02:07:16;;;;;;;11.60;4.90;;;3.80;99.90;;;;;;4336795;33;20160;-74
2021/04/23 02:09:43;;;;;;;11.27;4.80;;;3.80;99.90;;;;;;4336641;33;20163;-73
2021/04/23 02:12:10;;;;;;;15.83;5.13;;;3.80;99.90;;;;;;4338282;33;20135;-74
2021/04/23 02:14:37;;;;;;;11.00;5.23;;;3.80;99.90;;;;;;4328457;33;20160;-74
2021/04/23 02:17:06;;;;;;;11.67;4.80;;;3.80;99.90;;;;;;4322500;33;20229;-74
2021/04/23 02:19:32;;;;;;;11.27;5.23;;;3.80;99.90;;;;;;4314851;33;20296;-74
2021/04/23 02:21:59;;;;;;;12.47;5.20;;;3.80;99.90;;;;;;4322092;33;20470;-76
2021/04/23 02:24:25;;;;;;;12.77;5.10;;;3.80;99.90;;;;;;4320768;33;20150;-71
2021/04/23 02:26:52;;;;;;;10.03;4.93;;;3.70;99.90;;;;;;4322954;33;20413;-76
2021/04/23 02:29:19;;;;;;;10.13;5.10;;;3.70;99.90;;;;;;4320946;33;20470;-74
2021/04/23 02:31:49;;;;;;;10.53;4.87;;;3.60;99.90;;;;;;4321538;33;20160;-72
2021/04/23 02:34:18;;;;;;;11.87;5.23;;;3.60;99.90;;;;;;4322950;33;20150;-72
2021/04/23 02:36:46;;;;;;;14.80;5.40;;;3.60;99.90;;;;;;4321602;33;20222;-74
2021/04/23 02:39:15;;;;;;;12.07;5.40;;;3.60;99.90;;;;;;4321351;33;20165;-76
2021/04/23 02:41:43;;;;;;;13.80;4.93;;;3.50;99.90;;;;;;4321486;33;20159;-77
2021/04/23 02:44:11;;;;;;;13.77;5.50;;;3.50;99.90;;;;;;4322802;33;20150;-77
2021/04/23 02:46:38;;;;;;;11.77;5.20;;;3.50;99.90;;;;;;4321353;33;20138;-75
2021/04/23 02:49:06;;;;;;;11.97;5.37;;;3.50;99.90;;;;;;4322741;33;20142;-76
2021/04/23 02:51:36;;;;;;;12.10;5.63;;;3.50;99.90;;;;;;4321412;33;20175;-76
2021/04/23 02:54:04;;;;;;;13.73;5.37;;;3.40;99.90;;;;;;4322568;33;20200;-74
2021/04/23 02:56:32;;;;;;;14.83;5.40;;;3.40;99.90;;;;;;4320977;33;20205;-75
2021/04/23 02:58:59;;;;;;;11.93;5.27;;;3.40;99.90;;;;;;4317750;33;20150;-74
2021/04/23 03:01:31;;;;;;;10.13;5.27;;;3.40;99.90;;;;;;4307687;33;20135;-75
2021/04/23 03:03:57;;;;;;;14.00;5.33;;;3.30;99.90;;;;;;4307891;33;20156;-75
2021/04/23 03:06:24;;;;;;;11.97;5.67;;;3.30;99.90;;;;;;4309905;33;20429;-77
2021/04/23 03:08:51;;;;;;;14.80;4.90;;;3.30;99.90;;;;;;4310774;33;20184;-77
2021/04/23 03:11:23;;;;;;;16.03;5.30;;;3.30;99.90;;;;;;4321074;33;20407;-76
2021/04/23 03:13:55;;;;;;;12.13;4.97;;;3.30;99.90;;;;;;4320671;33;20142;-75
2021/04/23 03:16:24;;;;;;;13.90;5.60;;;3.30;99.90;;;;;;4322355;33;20185;-72
2021/04/23 03:18:52;;;;;;;9.93;5.00;;;3.30;99.90;;;;;;4322256;33;20177;-74
2021/04/23 03:21:22;;;;;;;10.00;5.07;;;3.30;99.90;;;;;;4322157;33;20193;-73
2021/04/23 03:23:49;;;;;;;9.73;4.67;;;3.40;99.90;;;;;;4320826;33;20146;-73
2021/04/23 03:26:17;;;;;;;11.70;4.73;;;3.30;99.90;;;;;;4320714;33;20517;-73
2021/04/23 03:28:44;;;;;;;12.63;4.80;;;3.30;99.90;;;;;;4320625;33;20133;-73
2021/04/23 03:31:13;;;;;;;12.60;4.70;;;3.30;99.90;;;;;;4320687;33;20163;-73
2021/04/23 03:33:41;;;;;;;10.90;4.70;;;3.30;99.90;;;;;;4320516;33;20183;-73
2021/04/23 03:36:09;;;;;;;13.37;4.67;;;3.40;99.90;;;;;;4321966;33;20147;-74
2021/04/23 03:38:38;;;;;;;8.67;4.83;;;3.30;99.90;;;;;;4322139;33;20383;-75
2021/04/23 03:41:14;;;;;;;9.27;4.43;;;3.30;99.90;;;;;;4320547;33;20542;-75
2021/04/23 03:43:41;;;;;;;11.90;4.90;;;3.30;99.90;;;;;;4321421;33;20215;-75
2021/04/23 03:46:10;;;;;;;10.20;4.80;;;3.30;99.90;;;;;;4320356;33;20150;-74
2021/04/23 03:48:37;;;;;;;10.17;4.43;;;3.30;99.90;;;;;;4320439;33;20184;-71
2021/04/23 03:51:05;;;;;;;11.13;4.57;;;3.30;99.90;;;;;;4321945;33;20437;-71
2021/04/23 03:53:32;;;;;;;11.37;4.90;;;3.30;99.90;;;;;;4320497;33;20137;-72
2021/04/23 03:56:00;;;;;;;10.10;5.10;;;3.30;99.90;;;;;;4328778;33;20161;-74
2021/04/23 03:58:27;;;;;;;12.17;4.80;;;3.30;99.90;;;;;;4333943;33;20171;-73
2021/04/23 04:00:56;;;;;;;13.20;5.10;;;3.20;99.90;;;;;;4333198;33;20152;-74
2021/04/23 04:03:24;;;;;;;10.47;4.43;;;3.20;99.90;;;;;;4334450;33;20129;-77
2021/04/23 04:05:51;;;;;;;9.83;4.57;;;3.20;99.90;;;;;;4336378;33;20169;-76
2021/04/23 04:08:17;;;;;;;10.37;4.53;;;3.30;99.90;;;;;;4334534;33;20142;-76
2021/04/23 04:10:45;;;;;;;10.60;5.30;;;3.30;99.90;;;;;;4336202;33;20232;-76
2021/04/23 04:13:11;;;;;;;13.97;4.90;;;3.40;99.90;;;;;;4334549;33;20242;-76
2021/04/23 04:15:38;;;;;;;8.80;4.23;;;3.40;99.90;;;;;;4334742;33;20204;-74
2021/04/23 04:18:05;;;;;;;7.73;4.00;;;3.50;99.90;;;;;;4334399;33;20133;-75
2021/04/23 04:20:35;;;;;;;7.83;4.03;;;3.50;99.90;;;;;;4334556;33;20221;-76
2021/04/23 04:23:05;;;;;;;12.77;4.47;;;3.50;99.90;;;;;;4335941;33;20383;-76
2021/04/23 04:25:35;;;;;;;10.33;4.23;;;3.60;99.90;;;;;;4334721;33;20138;-72
2021/04/23 04:28:02;;;;;;;8.70;4.17;;;3.60;99.90;;;;;;4334559;33;20163;-74
2021/04/23 04:30:29;;;;;;;10.83;4.33;;;3.60;99.90;;;;;;4334457;33;20140;-74
2021/04/23 04:32:56;;;;;;;9.03;4.30;;;3.70;99.90;;;;;;4335937;33;20149;-72
2021/04/23 04:35:24;;;;;;;11.50;4.93;;;3.70;99.90;;;;;;4336025;33;20233;-76
2021/04/23 04:37:51;;;;;;;11.77;5.03;;;3.70;99.90;;;;;;4334633;33;20183;-76
2021/04/23 04:40:19;;;;;;;8.73;4.10;;;3.70;99.90;;;;;;4334099;33;20459;-76
2021/04/23 04:42:46;;;;;;;11.37;4.60;;;3.80;99.90;;;;;;4334488;33;20145;-73
2021/04/23 04:45:16;;;;;;;8.70;4.53;;;3.90;99.90;;;;;;4334554;33;20185;-77
2021/04/23 04:47:44;;;;;;;10.17;4.70;;;3.90;99.90;;;;;;4335929;33;20157;-83
2021/04/23 04:50:17;;;;;;;11.43;4.70;;;4.10;99.90;;;;;;4335542;33;20298;-77
2021/04/23 04:52:44;;;;;;;8.27;4.13;;;4.10;99.90;;;;;;4335587;33;20499;-74
2021/04/23 04:55:12;;;;;;;9.10;4.53;;;4.20;99.90;;;;;;4334027;33;20597;-75
2021/04/23 04:57:39;;;;;;;11.27;4.53;;;4.20;99.90;;;;;;4334078;33;20180;-75
2021/04/23 05:00:10;;;;;;;10.70;4.73;;;4.20;99.90;;;;;;4333698;33;20171;-72
2021/04/23 05:02:37;;;;;;;9.97;4.27;;;4.30;99.90;;;;;;4333299;33;20146;-71
2021/04/23 05:05:06;;;;;;;12.43;5.10;;;4.30;99.90;;;;;;4334069;33;20143;-70
2021/04/23 05:07:33;;;;;;;9.17;4.53;;;4.40;99.90;;;;;;4335708;33;20149;-74
2021/04/23 05:10:00;;;;;;;10.97;4.80;;;4.50;99.90;;;;;;4335737;33;20213;-72
2021/04/23 05:12:27;;;;;;;11.47;5.23;;;4.60;99.90;;;;;;4335623;33;20190;-72
2021/04/23 05:14:53;;;;;;;11.73;4.70;;;4.60;99.90;;;;;;4335112;33;20205;-70
2021/04/23 05:17:20;;;;;;;9.87;4.60;;;4.60;99.90;;;;;;4335565;33;20228;-71
2021/04/23 05:19:46;;;;;;;10.13;4.70;;;4.70;99.90;;;;;;4334476;33;20391;-72
2021/04/23 05:22:12;;;;;;;12.57;5.20;;;4.60;99.90;;;;;;4337103;33;20191;-72
2021/04/23 05:24:39;;;;;;;13.63;5.33;;;4.60;99.90;;;;;;4336608;33;20408;-70
2021/04/23 05:27:05;;;;;;;10.20;4.47;;;4.70;99.90;;;;;;4338556;33;20136;-71
2021/04/23 05:29:32;;;;;;;9.63;4.50;;;4.80;99.90;;;;;;4336947;33;20135;-70
2021/04/23 05:32:01;;;;;;;11.30;4.60;;;4.90;99.90;;;;;;4334637;33;20136;-71
2021/04/23 05:34:29;;;;;;;13.13;4.80;;;4.90;99.90;;;;;;4321112;33;20220;-71
2021/04/23 05:36:56;;;;;;;11.63;4.20;;;5.00;99.90;;;;;;4320594;33;20204;-71
2021/04/23 05:39:23;;;;;;;11.67;4.80;;;5.00;99.90;;;;;;4320435;33;20196;-72
2021/04/23 05:41:49;;;;;;;8.17;4.33;;;5.00;99.90;;;;;;4322083;33;20145;-71
2021/04/23 05:44:16;;;;;;;12.20;4.30;;;5.10;99.90;;;;;;4320642;33;20208;-70
2021/04/23 05:46:42;;;;;;;9.97;4.60;;;5.10;99.90;;;;;;4320661;33;20147;-72
2021/04/23 05:49:09;;;;;;;11.87;4.80;;;5.10;99.90;;;;;;4320871;33;20152;-73
2021/04/23 05:51:36;;;;;;;9.00;5.23;;;5.20;99.90;;;;;;4321325;33;20132;-74
2021/04/23 05:54:02;;;;;;;11.53;4.73;;;5.30;99.90;;;;;;4323128;33;20201;-72
2021/04/23 05:56:29;;;;;;;12.70;4.53;;;5.40;99.90;;;;;;4322045;33;20160;-73
2021/04/23 05:58:55;;;;;;;8.40;4.50;;;5.60;99.90;;;;;;4322121;33;20132;-71
2021/04/23 06:01:22;;;;;;;10.40;4.63;;;5.70;99.90;;;;;;4321853;33;20150;-72
2021/04/23 06:03:49;;;;;;;8.87;4.27;;;5.80;99.90;;;;;;4322103;33;20411;-73
2021/04/23 06:06:16;;;;;;;9.63;4.90;;;5.90;99.90;;;;;;4324266;33;20144;-71
2021/04/23 06:08:43;;;;;;;11.10;4.67;;;6.00;99.60;;;;;;4322129;33;20463;-73
2021/04/23 06:11:16;;;;;;;11.27;5.03;;;6.00;99.60;;;;;;4323694;33;20236;-72
2021/04/23 06:13:45;;;;;;;10.70;5.23;;;6.00;99.90;;;;;;4322420;33;20138;-74
2021/04/23 06:16:11;;;;;;;9.97;5.10;;;6.00;99.90;;;;;;4321923;33;20526;-74
2021/04/23 06:18:39;;;;;;;11.83;5.17;;;6.20;99.90;;;;;;4322252;33;20211;-72
2021/04/23 06:21:06;;;;;;;10.17;4.67;;;6.10;99.90;;;;;;4322579;33;20163;-73
2021/04/23 06:23:34;;;;;;;11.17;4.90;;;6.00;99.90;;;;;;4321771;33;20195;-73
2021/04/23 06:26:01;;;;;;;12.83;4.97;;;6.20;99.90;;;;;;4321530;33;20300;-73
2021/04/23 06:28:27;;;;;;;11.30;4.60;;;6.20;99.90;;;;;;4321773;33;20443;-72
2021/04/23 06:30:54;;;;;;;10.63;4.50;;;6.30;99.50;;;;;;4322456;33;20212;-73
2021/04/23 06:33:23;;;;;;;9.07;4.70;;;6.50;99.40;;;;;;4322639;33;20195;-73
2021/04/23 06:35:50;;;;;;;8.23;4.93;;;6.60;99.40;;;;;;4321340;33;20156;-71
2021/04/23 06:38:18;;;;;;;9.53;4.40;;;6.50;98.20;;;;;;4321443;33;20187;-72
2021/04/23 06:40:45;;;;;;;12.17;4.50;;;6.50;97.00;;;;;;4321139;33;20187;-71
2021/04/23 06:43:11;;;;;;;14.00;4.40;;;6.40;96.50;;;;;;4321352;33;20163;-72
2021/04/23 06:45:39;;;;;;;10.97;4.40;;;6.50;96.80;;;;;;4321199;33;20141;-73
2021/04/23 06:48:10;;;;;;;9.13;4.30;;;6.60;95.80;;;;;;4321069;33;20131;-72
2021/04/23 06:50:36;;;;;;;10.47;4.30;;;6.70;95.70;;;;;;4322992;33;20160;-72
2021/04/23 06:53:03;;;;;;;11.43;3.87;;;6.60;95.40;;;;;;4322323;33;20177;-73
2021/04/23 06:55:30;;;;;;;7.50;3.83;;;6.90;95.20;;;;;;4321337;33;20161;-72
2021/04/23 06:57:57;;;;;;;10.63;4.20;;;7.10;94.10;;;;;;4321123;33;20144;-72
2021/04/23 07:00:29;;;;;;;7.47;3.60;;;7.30;92.70;;;;;;4322423;33;20187;-71
2021/04/23 07:02:58;;;;;;;8.03;3.70;;;7.30;91.80;;;;;;4321123;33;20138;-72
2021/04/23 07:05:25;;;;;;;10.60;4.30;;;7.30;91.60;;;;;;4322566;33;20227;-73
2021/04/23 07:07:52;;;;;;;11.70;3.97;;;7.10;92.00;;;;;;4321295;33;20140;-73
2021/04/23 07:10:23;;;;;;;9.20;3.67;;;7.20;92.30;;;;;;4321819;33;20209;-73
2021/04/23 07:12:49;;;;;;;11.27;4.30;;;7.20;91.50;;;;;;4322008;33;20419;-73
2021/04/23 07:15:19;;;;;;;6.53;3.57;;;7.20;90.90;;;;;;4321349;33;20160;-74
2021/04/23 07:17:46;;;;;;;8.03;3.80;;;7.30;90.50;;;;;;4322356;33;20179;-78
2021/04/23 07:20:32;;;;;;;10.37;3.50;;;7.30;91.00;;;;;;4322611;33;20239;-77
2021/04/23 07:22:58;;;;;;;6.77;3.70;;;7.30;88.50;;;;;;4320977;33;20138;-76
2021/04/23 07:25:26;;;;;;;9.87;3.87;;;7.40;88.30;;;;;;4320937;33;20141;-77
2021/04/23 07:27:52;;;;;;;10.03;4.00;;;7.60;88.70;;;;;;4320442;33;20133;-77
2021/04/23 07:30:25;;;;;;;8.00;4.10;;;7.80;88.20;;;;;;4320524;33;20156;-76
2021/04/23 07:32:51;;;;;;;11.00;3.80;;;7.80;85.80;;;;;;4321128;33;20176;-74
2021/04/23 07:35:18;;;;;;;7.93;3.90;;;7.80;85.90;;;;;;4320674;33;20160;-73
2021/04/23 07:37:45;;;;;;;6.17;3.27;;;7.80;85.50;;;;;;4320284;33;20487;-73
2021/04/23 07:40:14;;;;;;;7.80;3.30;;;7.80;86.40;;;;;;4321161;33;20189;-75
2021/04/23 07:42:41;;;;;;;6.20;3.07;;;8.10;83.90;;;;;;4320034;33;20141;-75
2021/04/23 07:45:09;;;;;;;7.33;2.70;;;8.10;80.60;;;;;;4320147;33;20215;-75
2021/04/23 07:47:35;;;;;;;9.00;3.00;;;8.10;79.00;;;;;;4320470;33;20474;-75
2021/04/23 07:50:05;;;;;;;6.90;3.33;;;8.20;79.30;;;;;;4320757;33;20187;-75
2021/04/23 07:52:32;;;;;;;8.47;3.17;;;8.30;78.80;;;;;;4320735;33;20142;-75
2021/04/23 07:55:01;;;;;;;11.27;2.93;;;8.30;78.20;;;;;;4321332;33;20169;-75
2021/04/23 07:57:30;;;;;;;8.07;3.07;;;8.30;77.80;;;;;;4322170;33;20503;-74
2021/04/23 07:59:57;;;;;;;8.43;3.20;;;8.20;78.80;;;;;;4321124;33;20215;-75
2021/04/23 08:03:17;;;;;;;6.60;2.93;;;8.20;78.90;;;;;;4483611;31;20264;-75
2021/04/23 08:05:43;;;;;;;8.60;2.90;;;8.30;76.10;;;;;;4468621;32;20423;-75
2021/04/23 08:08:10;;;;;;;6.87;2.60;;;8.60;74.20;;;;;;4470118;32;20302;-75
2021/04/23 08:10:37;;;;;;;6.67;2.80;;;9.40;72.30;;;;;;4467995;32;20233;-75
2021/04/23 08:13:04;;;;;;;5.50;2.80;;;9.70;70.00;;;;;;4468602;32;20220;-75
2021/04/23 08:15:32;;;;;;;7.43;2.67;;;10.00;68.10;;;;;;4468521;32;20150;-75
2021/04/23 08:17:59;;;;;;;10.00;2.90;;;10.20;68.50;;;;;;4469875;32;20149;-74
2021/04/23 08:20:27;;;;;;;6.63;2.43;;;10.00;67.50;;;;;;4468973;32;20161;-74
2021/04/23 08:22:54;;;;;;;5.07;2.30;;;10.20;65.00;;;;;;4468770;32;20150;-75
2021/04/23 08:25:21;;;;;;;6.67;2.60;;;10.10;64.70;;;;;;4467784;32;20184;-75
2021/04/23 08:27:49;;;;;;;6.83;2.70;;;10.50;64.40;;;;;;4468397;32;20206;-74
2021/04/23 08:30:17;;;;;;;7.00;2.37;;;11.10;62.20;;;;;;4468521;32;20183;-75
2021/04/23 08:32:44;;;;;;;7.10;2.80;;;11.00;59.60;;;;;;4469847;32;20183;-73
2021/04/23 08:35:11;;;;;;;5.90;2.47;;;10.90;61.50;;;;;;4468259;32;20137;-75
2021/04/23 08:37:38;;;;;;;7.20;2.50;;;11.10;59.90;;;;;;4468084;32;20134;-75
2021/04/23 08:40:06;;;;;;;6.07;2.20;;;11.20;59.90;;;;;;4468129;32;20232;-74
2021/04/23 08:42:33;;;;;;;5.80;2.47;;;11.40;59.20;;;;;;4467980;32;20150;-75
2021/04/23 08:45:01;;;;;;;5.63;1.90;;;11.50;57.00;;;;;;4467843;32;20212;-75
2021/04/23 08:47:28;;;;;;;5.63;2.00;;;11.50;55.40;;;;;;4469390;32;20146;-74
2021/04/23 08:49:59;;;;;;;5.57;2.13;;;11.30;55.70;;;;;;4467824;32;20161;-74
2021/04/23 08:52:26;;;;;;;7.23;2.30;;;11.50;56.00;;;;;;4468766;32;20134;-75
2021/04/23 08:54:54;;;;;;;6.07;2.27;;;11.70;55.80;;;;;;4469112;32;20194;-75
2021/04/23 08:57:25;;;;;;;4.37;2.20;;;11.90;54.90;;;;;;4467942;32;20464;-75
2021/04/23 08:59:52;;;;;;;5.90;2.23;;;11.30;55.30;;;;;;4467860;32;20162;-76
2021/04/23 09:02:19;;;;;;;6.40;2.30;;;11.60;55.80;;;;;;4468088;32;20179;-75
2021/04/23 09:04:46;;;;;;;9.37;2.30;;;11.50;54.60;;;;;;4469220;32;20158;-74
2021/04/23 09:07:12;;;;;;;5.00;2.40;;;11.60;55.90;;;;;;4467708;32;20169;-74
2021/04/23 09:09:44;;;;;;;4.97;2.60;;;12.00;55.10;;;;;;4467627;32;20168;-75
2021/04/23 09:12:21;;;;;;;5.67;2.40;;;12.00;54.90;;;;;;4469137;32;20169;-75
2021/04/23 09:14:53;;;;;;;4.13;1.93;;;12.40;54.10;;;;;;4458529;32;20491;-75
2021/04/23 09:17:25;;;;;;;9.43;2.50;;;11.80;53.30;;;;;;4457280;32;20189;-74
2021/04/23 09:19:52;;;;;;;4.93;2.50;;;11.10;55.20;;;;;;4458622;32;20467;-75
2021/04/23 09:22:29;;;;;;;5.47;2.30;;;10.70;58.10;;;;;;4457038;32;20475;-75
2021/04/23 09:25:00;;;;;;;4.63;2.40;;;10.50;59.30;;;;;;4457096;32;20162;-74
2021/04/23 09:27:36;;;;;;;6.77;2.77;;;10.30;61.10;;;;;;4456692;32;20134;-74
2021/04/23 09:30:07;;;;;;;7.03;2.50;;;9.70;63.60;;;;;;4457706;32;20134;-75
2021/04/23 09:32:36;;;;;;;6.07;2.87;;;9.50;61.50;;;;;;4457869;32;20472;-74
2021/04/23 09:35:18;;;;;;;5.57;1.43;;;9.20;64.80;;;;;;4456872;32;20154;-74
2021/04/23 09:37:54;;;;;;;2.10;1.50;;;8.80;57.40;;;;;;4456999;32;20138;-74
2021/04/23 09:40:23;;;;;;;7.70;2.37;;;8.40;59.30;;;;;;4456766;32;20241;-74
2021/04/23 09:42:52;;;;;;;4.60;2.50;;;8.30;66.50;;;;;;4456638;32;20177;-74
2021/04/23 09:45:27;;;;;;;3.17;1.80;;;8.50;68.90;;;;;;4458121;32;20146;-75
2021/04/23 09:47:55;;;;;;;7.70;2.30;;;8.90;66.40;;;;;;4458393;32;20172;-75
2021/04/23 09:50:27;;;;;;;3.40;1.87;;;9.80;66.30;;;;;;4458137;32;20147;-75
2021/04/23 09:52:55;;;;;;;3.67;1.80;;;10.40;60.60;;;;;;4456652;32;20202;-73
2021/04/23 09:55:27;;;;;;;6.10;1.60;;;10.10;57.80;;;;;;4458014;32;20413;-74
2021/04/23 09:57:56;;;;;;;5.13;1.70;;;10.60;56.80;;;;;;4456748;32;20176;-73
2021/04/23 10:00:29;;;;;;;4.37;2.00;;;10.90;56.10;;;;;;4456378;32;20142;-74
2021/04/23 10:03:01;;;;;;;6.00;1.97;;;10.90;57.60;;;;;;4456373;32;20176;-73
2021/04/23 10:05:43;;;;;;;3.13;1.77;;;11.20;56.00;;;;;;4455538;32;20139;-73
2021/04/23 10:08:23;;;;;;;5.03;1.70;;;12.00;54.20;;;;;;4456393;32;20142;-74
2021/04/23 10:10:57;;;;;;;6.17;2.43;;;11.70;54.40;;;;;;4457937;32;20204;-75
2021/04/23 10:13:32;;;;;;;5.50;2.50;;;12.10;55.40;;;;;;4457992;32;20190;-75
2021/04/23 10:16:00;;;;;;;6.03;2.57;;;12.30;55.10;;;;;;4457548;32;20158;-75
2021/04/23 10:18:27;;;;;;;6.23;2.20;;;13.00;54.10;;;;;;4457790;32;20449;-74
2021/04/23 10:20:59;;;;;;;5.40;2.10;;;13.30;50.50;;;;;;4457815;32;20158;-75
2021/04/23 10:23:29;;;;;;;5.10;2.10;;;13.30;50.20;;;;;;4457802;32;20172;-74
2021/04/23 10:25:55;;;;;;;4.97;1.60;;;12.90;48.90;;;;;;4456895;32;20413;-74
2021/04/23 10:28:24;;;;;;;6.13;2.10;;;13.10;47.70;;;;;;4456144;32;20188;-75
2021/04/23 10:30:53;;;;;;;3.33;1.93;;;12.80;48.70;;;;;;4456220;32;20142;-75
2021/04/23 10:33:24;;;;;;;4.27;2.07;;;13.40;48.80;;;;;;4456034;32;20169;-75
2021/04/23 10:35:55;;;;;;;3.40;1.70;;;14.00;46.90;;;;;;4457526;32;20139;-75
2021/04/23 10:38:25;;;;;;;6.30;1.90;;;14.50;46.80;;;;;;4455616;32;20542;-76
2021/04/23 10:40:59;;;;;;;4.23;1.97;;;13.90;45.80;;;;;;4455996;32;20147;-76
2021/04/23 10:43:31;;;;;;;6.00;1.97;;;13.60;47.00;;;;;;4456466;32;20241;-75
2021/04/23 10:46:10;;;;;;;4.97;1.97;;;13.60;45.70;;;;;;4455750;32;20232;-75
2021/04/23 10:48:42;;;;;;;3.83;1.50;;;13.30;48.00;;;;;;4457683;32;20165;-74
2021/04/23 10:51:22;;;;;;;5.50;1.50;;;13.10;55.00;;;;;;4455690;32;20468;-75
2021/04/23 10:53:51;;;;;;;6.57;1.63;;;12.10;61.60;;;;;;4455215;32;20510;-75
2021/04/23 10:56:33;;;;;;;3.03;1.77;;;11.10;66.80;;;;;;4455207;32;20177;-74
2021/04/23 10:59:01;;;;;;;5.30;1.87;;;10.50;71.00;;;;;;4455867;32;20355;-75
2021/04/23 11:01:30;;;;;;;4.37;2.00;;;9.60;74.90;;;;;;4455530;32;20207;-75
2021/04/23 11:04:04;;;;;;;2.87;1.70;;;9.00;80.40;;;;;;4455847;32;20145;-74
2021/04/23 11:06:41;;;;;;;4.67;1.80;;;8.80;82.90;;;;;;4455057;32;20181;-74
2021/04/23 11:09:14;;;;;;;3.37;1.90;;;8.50;85.90;;;;;;4455584;32;20146;-75
2021/04/23 11:11:42;;;;;;;6.50;2.40;;;7.90;92.80;;;;;;4457140;32;20147;-75
2021/04/23 11:14:30;;;;;;;5.67;2.40;;;7.40;98.40;;;;;;4457135;32;20142;-76
2021/04/23 11:17:17;;;;;;;4.03;2.23;;;7.00;99.90;;;;;;4457287;32;20433;-76
2021/04/23 11:19:46;;;;;;;5.63;2.47;;;7.00;99.90;;;;;;4457046;32;20483;-77
2021/04/23 11:22:23;;;;;;;5.67;2.50;;;7.20;99.90;;;;;;4455544;32;20150;-76
2021/04/23 11:25:18;;;;;;;6.20;2.53;;;7.30;99.90;;;;;;4457041;32;20443;-76
2021/04/23 11:28:00;;;;;;;4.40;2.57;;;7.20;99.90;;;;;;4457011;32;20511;-75
2021/04/23 11:31:01;;;;;;;5.30;2.43;;;7.00;99.90;;;;;;4456815;32;20163;-75
2021/04/23 11:33:50;;;;;;;4.07;2.60;;;6.60;99.90;;;;;;4456853;32;20142;-75
2021/04/23 11:36:37;;;;;;;4.87;2.50;;;6.40;99.90;;;;;;4456619;32;20192;-75
2021/04/23 11:39:08;;;;;;;4.50;2.80;;;6.40;99.90;;;;;;4455666;32;20148;-77
2021/04/23 11:41:35;;;;;;;7.63;2.70;;;6.20;99.90;;;;;;4456579;32;20189;-75
2021/04/23 11:44:02;;;;;;;6.40;2.83;;;6.20;99.90;;;;;;4454589;32;20134;-75
2021/04/23 11:46:57;;;;;;;6.87;2.70;;;6.00;99.90;;;;;;4455091;32;20189;-74
2021/04/23 11:49:24;;;;;;;5.33;2.80;;;5.70;99.90;;;;;;4393198;32;20194;-75
2021/04/23 11:51:52;;;;;;;4.50;2.70;;;5.60;99.90;;;;;;4391625;32;20191;-74
2021/04/23 11:54:41;;;;;;;5.03;2.97;;;5.40;99.90;;;;;;4391702;32;20158;-76
2021/04/23 11:57:11;;;;;;;4.73;2.93;;;5.00;99.90;;;;;;4393157;32;20190;-74
2021/04/23 11:59:57;;;;;;;4.83;3.50;;;4.90;99.90;;;;;;4391721;32;20248;-76
2021/04/23 12:02:36;;;;;;;3.93;2.90;;;5.10;99.90;;;;;;4391978;32;20147;-76
2021/04/23 12:05:03;;;;;;;4.97;3.13;;;5.20;99.90;;;;;;4391515;32;20424;-76
2021/04/23 12:07:43;;;;;;;4.13;3.03;;;5.20;99.90;;;;;;4391983;32;20245;-76
2021/04/23 12:10:15;;;;;;;4.83;3.03;;;5.70;99.90;;;;;;4391960;32;20170;-76
2021/04/23 12:12:45;;;;;;;5.73;3.23;;;6.30;99.90;;;;;;4392573;32;20184;-76
2021/04/23 12:15:27;;;;;;;5.27;2.67;;;6.80;99.90;;;;;;4393139;32;20155;-75
2021/04/23 12:17:57;;;;;;;4.57;3.03;;;7.20;99.90;;;;;;4393119;32;20465;-75
2021/04/23 12:20:37;;;;;;;6.07;3.10;;;7.40;99.90;;;;;;4392297;32;20149;-74
2021/04/23 12:23:09;;;;;;;4.60;2.87;;;7.70;99.90;;;;;;4393062;32;20155;-74
2021/04/23 12:25:41;;;;;;;5.10;2.77;;;7.50;99.90;;;;;;4417125;32;20156;-74
2021/04/23 12:28:38;;;;;;;5.83;3.10;;;7.40;99.90;;;;;;4456259;32;20139;-74
2021/04/23 12:31:16;;;;;;;4.87;3.10;;;7.40;99.90;;;;;;4454762;32;20200;-74
2021/04/23 12:33:52;;;;;;;3.77;2.23;;;7.80;99.90;;;;;;4455927;32;20178;-74
2021/04/23 12:36:33;;;;;;;2.63;1.73;;;8.20;99.90;;;;;;4454620;32;20150;-75
2021/04/23 12:39:10;;;;;;;2.67;1.87;;;8.30;99.90;;;;;;4456624;32;20533;-75
2021/04/23 12:41:41;;;;;;;4.97;2.50;;;8.60;99.90;;;;;;4455698;32;20205;-75
2021/04/23 12:44:11;;;;;;;5.57;2.40;;;9.10;99.90;;;;;;4454497;32;20167;-74
2021/04/23 12:46:41;;;;;;;2.87;2.20;;;9.30;99.90;;;;;;4454290;32;20139;-74
2021/04/23 12:49:16;;;;;;;4.27;2.50;;;10.20;97.70;;;;;;4456027;32;20457;-74
2021/04/23 12:52:01;;;;;;;5.37;1.90;;;10.30;93.90;;;;;;4457338;32;20436;-75
2021/04/23 12:54:32;;;;;;;3.03;2.00;;;11.30;90.30;;;;;;4459137;32;20134;-74
2021/04/23 12:57:01;;;;;;;5.53;2.23;;;12.00;87.40;;;;;;4458144;32;20551;-74
2021/04/23 12:59:38;;;;;;;2.67;1.90;;;12.20;80.80;;;;;;4458138;32;20441;-75
2021/04/23 13:02:07;;;;;;;4.50;2.37;;;11.90;80.30;;;;;;4457045;32;20150;-75
2021/04/23 13:04:34;;;;;;;3.13;2.20;;;11.80;80.70;;;;;;4458835;32;20210;-75
2021/04/23 13:07:14;;;;;;;3.90;2.60;;;11.70;80.30;;;;;;4457397;32;20142;-74